sensor_id;sensor_type;location;lat;lon;timestamp;P1;durP1;ratioP1;P2;durP2;ratioP2
35993;SDS011;22066;54.274;18.578;2024-02-14T00:01:06;0.20;;;0.20;;
35993;SDS011;22066;54.274;18.578;2024-02-14T00:03:35;0.00;;;0.00;;
35993;SDS011;22066;54.274;18.578;2024-02-14T00:06:03;0.63;;;0.63;;
35993;SDS011;22066;54.274;18.578;2024-02-14T00:08:32;1.57;;;1.47;;
35993;SDS011;22066;54.274;18.578;2024-02-14T00:11:07;0.33;;;0.33;;
35993;SDS011;22066;54.274;18.578;2024-02-14T00:13:46;0.27;;;0.27;;
35993;SDS011;22066;54.274;18.578;2024-02-14T00:18:38;0.50;;;0.50;;
35993;SDS011;22066;54.274;18.578;2024-02-14T00:21:04;0.10;;;0.10;;
35993;SDS011;22066;54.274;18.578;2024-02-14T00:23:33;9.73;;;1.20;;
35993;SDS011;22066;54.274;18.578;2024-02-14T00:26:00;0.00;;;0.00;;
35993;SDS011;22066;54.274;18.578;2024-02-14T00:28:26;0.30;;;0.30;;
35993;SDS011;22066;54.274;18.578;2024-02-14T00:30:55;0.10;;;0.10;;
35993;SDS011;22066;54.274;18.578;2024-02-14T00:33:27;0.00;;;0.00;;
35993;SDS011;22066;54.274;18.578;2024-02-14T00:35:53;0.50;;;0.50;;
35993;SDS011;22066;54.274;18.578;2024-02-14T00:38:19;0.00;;;0.00;;
35993;SDS011;22066;54.274;18.578;2024-02-14T00:40:51;0.27;;;0.27;;
35993;SDS011;22066;54.274;18.578;2024-02-14T00:43:21;0.00;;;0.00;;
35993;SDS011;22066;54.274;18.578;2024-02-14T00:45:47;0.00;;;0.00;;
35993;SDS011;22066;54.274;18.578;2024-02-14T00:48:13;0.00;;;0.00;;
35993;SDS011;22066;54.274;18.578;2024-02-14T00:50:39;0.93;;;0.93;;
35993;SDS011;22066;54.274;18.578;2024-02-14T00:53:05;0.17;;;0.17;;
35993;SDS011;22066;54.274;18.578;2024-02-14T00:55:31;0.30;;;0.30;;
35993;SDS011;22066;54.274;18.578;2024-02-14T00:57:57;0.13;;;0.13;;
35993;SDS011;22066;54.274;18.578;2024-02-14T01:00:23;0.03;;;0.03;;
35993;SDS011;22066;54.274;18.578;2024-02-14T01:02:49;5.30;;;2.10;;
35993;SDS011;22066;54.274;18.578;2024-02-14T01:05:16;0.30;;;0.30;;
35993;SDS011;22066;54.274;18.578;2024-02-14T01:07:42;0.00;;;0.00;;
35993;SDS011;22066;54.274;18.578;2024-02-14T01:10:08;1.70;;;1.50;;
35993;SDS011;22066;54.274;18.578;2024-02-14T01:12:34;0.00;;;0.00;;
35993;SDS011;22066;54.274;18.578;2024-02-14T01:15:00;0.00;;;0.00;;
35993;SDS011;22066;54.274;18.578;2024-02-14T01:17:27;0.17;;;0.17;;
35993;SDS011;22066;54.274;18.578;2024-02-14T01:19:53;0.47;;;0.47;;
35993;SDS011;22066;54.274;18.578;2024-02-14T01:22:19;0.57;;;0.57;;
35993;SDS011;22066;54.274;18.578;2024-02-14T01:24:45;1.70;;;0.93;;
35993;SDS011;22066;54.274;18.578;2024-02-14T01:27:12;0.00;;;0.00;;
35993;SDS011;22066;54.274;18.578;2024-02-14T01:29:38;0.00;;;0.00;;
35993;SDS011;22066;54.274;18.578;2024-02-14T01:32:04;0.63;;;0.63;;
35993;SDS011;22066;54.274;18.578;2024-02-14T01:34:31;0.10;;;0.10;;
35993;SDS011;22066;54.274;18.578;2024-02-14T01:36:57;0.00;;;0.00;;
35993;SDS011;22066;54.274;18.578;2024-02-14T01:39:23;0.30;;;0.30;;
35993;SDS011;22066;54.274;18.578;2024-02-14T01:41:50;0.63;;;0.63;;
35993;SDS011;22066;54.274;18.578;2024-02-14T01:44:31;0.00;;;0.00;;
35993;SDS011;22066;54.274;18.578;2024-02-14T01:46:57;1.97;;;1.20;;
35993;SDS011;22066;54.274;18.578;2024-02-14T01:49:26;0.97;;;0.97;;
35993;SDS011;22066;54.274;18.578;2024-02-14T01:51:56;0.20;;;0.20;;
35993;SDS011;22066;54.274;18.578;2024-02-14T01:54:42;0.17;;;0.17;;
35993;SDS011;22066;54.274;18.578;2024-02-14T01:57:09;0.13;;;0.13;;
35993;SDS011;22066;54.274;18.578;2024-02-14T01:59:36;0.80;;;0.80;;
35993;SDS011;22066;54.274;18.578;2024-02-14T02:02:03;0.67;;;0.67;;
35993;SDS011;22066;54.274;18.578;2024-02-14T02:04:32;0.33;;;0.30;;
35993;SDS011;22066;54.274;18.578;2024-02-14T02:06:58;0.00;;;0.00;;
35993;SDS011;22066;54.274;18.578;2024-02-14T02:09:24;0.00;;;0.00;;
35993;SDS011;22066;54.274;18.578;2024-02-14T02:11:51;0.20;;;0.20;;
35993;SDS011;22066;54.274;18.578;2024-02-14T02:14:19;0.00;;;0.00;;
35993;SDS011;22066;54.274;18.578;2024-02-14T02:16:46;0.30;;;0.30;;
35993;SDS011;22066;54.274;18.578;2024-02-14T02:19:13;0.10;;;0.10;;
35993;SDS011;22066;54.274;18.578;2024-02-14T02:21:43;0.20;;;0.20;;
35993;SDS011;22066;54.274;18.578;2024-02-14T02:24:11;1.23;;;1.13;;
35993;SDS011;22066;54.274;18.578;2024-02-14T02:26:37;0.37;;;0.37;;
35993;SDS011;22066;54.274;18.578;2024-02-14T02:29:03;0.83;;;0.83;;
35993;SDS011;22066;54.274;18.578;2024-02-14T02:31:31;0.00;;;0.00;;
35993;SDS011;22066;54.274;18.578;2024-02-14T02:33:57;0.00;;;0.00;;
35993;SDS011;22066;54.274;18.578;2024-02-14T02:36:26;0.00;;;0.00;;
35993;SDS011;22066;54.274;18.578;2024-02-14T02:38:55;0.07;;;0.07;;
35993;SDS011;22066;54.274;18.578;2024-02-14T02:41:21;0.20;;;0.20;;
35993;SDS011;22066;54.274;18.578;2024-02-14T02:43:47;0.23;;;0.23;;
35993;SDS011;22066;54.274;18.578;2024-02-14T02:46:15;0.35;;;0.35;;
35993;SDS011;22066;54.274;18.578;2024-02-14T02:48:42;0.00;;;0.00;;
35993;SDS011;22066;54.274;18.578;2024-02-14T02:51:08;0.40;;;0.40;;
35993;SDS011;22066;54.274;18.578;2024-02-14T02:53:34;0.00;;;0.00;;
35993;SDS011;22066;54.274;18.578;2024-02-14T02:56:01;0.00;;;0.00;;
35993;SDS011;22066;54.274;18.578;2024-02-14T02:58:27;0.67;;;0.67;;
35993;SDS011;22066;54.274;18.578;2024-02-14T03:00:53;0.93;;;0.53;;
35993;SDS011;22066;54.274;18.578;2024-02-14T03:03:20;1.75;;;1.40;;
35993;SDS011;22066;54.274;18.578;2024-02-14T03:05:47;0.20;;;0.20;;
35993;SDS011;22066;54.274;18.578;2024-02-14T03:08:14;0.20;;;0.20;;
35993;SDS011;22066;54.274;18.578;2024-02-14T03:10:40;0.67;;;0.53;;
35993;SDS011;22066;54.274;18.578;2024-02-14T03:13:07;0.30;;;0.30;;
35993;SDS011;22066;54.274;18.578;2024-02-14T03:15:39;0.83;;;0.83;;
35993;SDS011;22066;54.274;18.578;2024-02-14T03:18:05;0.33;;;0.33;;
35993;SDS011;22066;54.274;18.578;2024-02-14T03:20:34;0.33;;;0.33;;
35993;SDS011;22066;54.274;18.578;2024-02-14T03:23:00;0.07;;;0.07;;
35993;SDS011;22066;54.274;18.578;2024-02-14T03:25:28;0.10;;;0.10;;
35993;SDS011;22066;54.274;18.578;2024-02-14T03:27:54;2.80;;;1.30;;
35993;SDS011;22066;54.274;18.578;2024-02-14T03:33:26;0.30;;;0.30;;
35993;SDS011;22066;54.274;18.578;2024-02-14T03:35:54;1.70;;;1.60;;
35993;SDS011;22066;54.274;18.578;2024-02-14T03:38:26;1.63;;;1.53;;
35993;SDS011;22066;54.274;18.578;2024-02-14T03:40:53;0.27;;;0.27;;
35993;SDS011;22066;54.274;18.578;2024-02-14T03:43:19;0.20;;;0.20;;
35993;SDS011;22066;54.274;18.578;2024-02-14T03:45:47;6.40;;;3.40;;
35993;SDS011;22066;54.274;18.578;2024-02-14T03:48:13;0.67;;;0.67;;
35993;SDS011;22066;54.274;18.578;2024-02-14T03:50:39;1.33;;;1.23;;
35993;SDS011;22066;54.274;18.578;2024-02-14T03:53:05;0.00;;;0.00;;
35993;SDS011;22066;54.274;18.578;2024-02-14T03:55:31;0.00;;;0.00;;
35993;SDS011;22066;54.274;18.578;2024-02-14T03:57:57;0.10;;;0.10;;
35993;SDS011;22066;54.274;18.578;2024-02-14T04:00:24;0.00;;;0.00;;
35993;SDS011;22066;54.274;18.578;2024-02-14T04:02:50;0.00;;;0.00;;
35993;SDS011;22066;54.274;18.578;2024-02-14T04:05:23;0.00;;;0.00;;
35993;SDS011;22066;54.274;18.578;2024-02-14T04:07:49;0.53;;;0.50;;
35993;SDS011;22066;54.274;18.578;2024-02-14T04:10:18;0.15;;;0.13;;
35993;SDS011;22066;54.274;18.578;2024-02-14T04:12:44;0.10;;;0.10;;
35993;SDS011;22066;54.274;18.578;2024-02-14T04:15:10;2.17;;;1.13;;
35993;SDS011;22066;54.274;18.578;2024-02-14T04:17:36;0.27;;;0.27;;
35993;SDS011;22066;54.274;18.578;2024-02-14T04:20:02;0.10;;;0.10;;
35993;SDS011;22066;54.274;18.578;2024-02-14T04:22:30;0.63;;;0.63;;
35993;SDS011;22066;54.274;18.578;2024-02-14T04:24:56;3.88;;;0.95;;
35993;SDS011;22066;54.274;18.578;2024-02-14T04:27:22;2.53;;;2.33;;
35993;SDS011;22066;54.274;18.578;2024-02-14T04:29:48;0.00;;;0.00;;
35993;SDS011;22066;54.274;18.578;2024-02-14T04:32:14;0.00;;;0.00;;
35993;SDS011;22066;54.274;18.578;2024-02-14T04:34:41;0.00;;;0.00;;
35993;SDS011;22066;54.274;18.578;2024-02-14T04:37:08;0.00;;;0.00;;
35993;SDS011;22066;54.274;18.578;2024-02-14T04:39:41;1.23;;;1.17;;
35993;SDS011;22066;54.274;18.578;2024-02-14T04:42:07;3.17;;;2.67;;
35993;SDS011;22066;54.274;18.578;2024-02-14T04:44:33;0.20;;;0.20;;
35993;SDS011;22066;54.274;18.578;2024-02-14T04:47:00;0.00;;;0.00;;
35993;SDS011;22066;54.274;18.578;2024-02-14T04:49:27;0.10;;;0.10;;
35993;SDS011;22066;54.274;18.578;2024-02-14T04:51:56;0.83;;;0.83;;
35993;SDS011;22066;54.274;18.578;2024-02-14T04:54:22;1.23;;;1.13;;
35993;SDS011;22066;54.274;18.578;2024-02-14T04:56:48;0.00;;;0.00;;
35993;SDS011;22066;54.274;18.578;2024-02-14T04:59:14;1.53;;;1.43;;
35993;SDS011;22066;54.274;18.578;2024-02-14T05:01:40;0.00;;;0.00;;
35993;SDS011;22066;54.274;18.578;2024-02-14T05:04:06;0.50;;;0.50;;
35993;SDS011;22066;54.274;18.578;2024-02-14T05:06:32;0.00;;;0.00;;
35993;SDS011;22066;54.274;18.578;2024-02-14T05:08:58;0.00;;;0.00;;
35993;SDS011;22066;54.274;18.578;2024-02-14T05:11:25;0.27;;;0.27;;
35993;SDS011;22066;54.274;18.578;2024-02-14T05:13:51;0.00;;;0.00;;
35993;SDS011;22066;54.274;18.578;2024-02-14T05:16:18;0.10;;;0.10;;
35993;SDS011;22066;54.274;18.578;2024-02-14T05:18:44;1.17;;;1.07;;
35993;SDS011;22066;54.274;18.578;2024-02-14T05:21:10;0.00;;;0.00;;
35993;SDS011;22066;54.274;18.578;2024-02-14T05:23:36;1.40;;;1.33;;
35993;SDS011;22066;54.274;18.578;2024-02-14T05:26:02;0.30;;;0.30;;
35993;SDS011;22066;54.274;18.578;2024-02-14T05:28:29;1.07;;;0.87;;
35993;SDS011;22066;54.274;18.578;2024-02-14T05:30:56;0.27;;;0.27;;
35993;SDS011;22066;54.274;18.578;2024-02-14T05:33:22;0.00;;;0.00;;
35993;SDS011;22066;54.274;18.578;2024-02-14T05:35:48;1.40;;;0.73;;
35993;SDS011;22066;54.274;18.578;2024-02-14T05:38:15;0.10;;;0.10;;
35993;SDS011;22066;54.274;18.578;2024-02-14T05:40:41;5.00;;;1.87;;
35993;SDS011;22066;54.274;18.578;2024-02-14T05:43:11;1.88;;;1.77;;
35993;SDS011;22066;54.274;18.578;2024-02-14T05:45:37;0.07;;;0.07;;
35993;SDS011;22066;54.274;18.578;2024-02-14T05:48:03;0.00;;;0.00;;
35993;SDS011;22066;54.274;18.578;2024-02-14T05:50:30;0.27;;;0.27;;
35993;SDS011;22066;54.274;18.578;2024-02-14T05:52:56;1.80;;;1.60;;
35993;SDS011;22066;54.274;18.578;2024-02-14T05:55:22;0.43;;;0.43;;
35993;SDS011;22066;54.274;18.578;2024-02-14T05:57:49;0.10;;;0.10;;
35993;SDS011;22066;54.274;18.578;2024-02-14T06:00:17;0.00;;;0.00;;
35993;SDS011;22066;54.274;18.578;2024-02-14T06:02:44;0.00;;;0.00;;
35993;SDS011;22066;54.274;18.578;2024-02-14T06:05:10;0.00;;;0.00;;
35993;SDS011;22066;54.274;18.578;2024-02-14T06:07:36;1.50;;;0.77;;
35993;SDS011;22066;54.274;18.578;2024-02-14T06:10:02;4.33;;;1.73;;
35993;SDS011;22066;54.274;18.578;2024-02-14T06:12:28;0.10;;;0.10;;
35993;SDS011;22066;54.274;18.578;2024-02-14T06:14:57;0.37;;;0.37;;
35993;SDS011;22066;54.274;18.578;2024-02-14T06:17:23;3.20;;;1.90;;
35993;SDS011;22066;54.274;18.578;2024-02-14T06:19:51;0.88;;;0.88;;
35993;SDS011;22066;54.274;18.578;2024-02-14T06:22:17;0.10;;;0.10;;
35993;SDS011;22066;54.274;18.578;2024-02-14T06:24:44;1.10;;;1.10;;
35993;SDS011;22066;54.274;18.578;2024-02-14T06:27:10;0.40;;;0.40;;
35993;SDS011;22066;54.274;18.578;2024-02-14T06:29:36;0.43;;;0.43;;
35993;SDS011;22066;54.274;18.578;2024-02-14T06:32:02;0.00;;;0.00;;
35993;SDS011;22066;54.274;18.578;2024-02-14T06:34:28;0.23;;;0.23;;
35993;SDS011;22066;54.274;18.578;2024-02-14T06:36:54;1.03;;;1.03;;
35993;SDS011;22066;54.274;18.578;2024-02-14T06:39:20;1.13;;;1.03;;
35993;SDS011;22066;54.274;18.578;2024-02-14T06:41:46;2.13;;;1.30;;
35993;SDS011;22066;54.274;18.578;2024-02-14T06:44:13;0.60;;;0.60;;
35993;SDS011;22066;54.274;18.578;2024-02-14T06:46:39;2.63;;;2.00;;
35993;SDS011;22066;54.274;18.578;2024-02-14T06:49:06;0.00;;;0.00;;
35993;SDS011;22066;54.274;18.578;2024-02-14T06:51:33;0.57;;;0.57;;
35993;SDS011;22066;54.274;18.578;2024-02-14T06:53:59;0.57;;;0.57;;
35993;SDS011;22066;54.274;18.578;2024-02-14T06:56:25;0.10;;;0.10;;
35993;SDS011;22066;54.274;18.578;2024-02-14T06:58:51;0.30;;;0.30;;
35993;SDS011;22066;54.274;18.578;2024-02-14T07:01:20;0.20;;;0.20;;
35993;SDS011;22066;54.274;18.578;2024-02-14T07:03:49;0.50;;;0.50;;
35993;SDS011;22066;54.274;18.578;2024-02-14T07:06:16;0.00;;;0.00;;
35993;SDS011;22066;54.274;18.578;2024-02-14T07:08:43;1.60;;;1.50;;
35993;SDS011;22066;54.274;18.578;2024-02-14T07:11:09;0.03;;;0.03;;
35993;SDS011;22066;54.274;18.578;2024-02-14T07:13:35;3.13;;;2.57;;
35993;SDS011;22066;54.274;18.578;2024-02-14T07:16:01;0.40;;;0.40;;
35993;SDS011;22066;54.274;18.578;2024-02-14T07:18:27;0.70;;;0.70;;
35993;SDS011;22066;54.274;18.578;2024-02-14T07:20:53;2.07;;;1.10;;
35993;SDS011;22066;54.274;18.578;2024-02-14T07:23:20;0.17;;;0.17;;
35993;SDS011;22066;54.274;18.578;2024-02-14T07:25:46;1.27;;;1.17;;
35993;SDS011;22066;54.274;18.578;2024-02-14T07:28:12;0.40;;;0.40;;
35993;SDS011;22066;54.274;18.578;2024-02-14T07:30:38;0.37;;;0.37;;
35993;SDS011;22066;54.274;18.578;2024-02-14T07:33:04;0.20;;;0.20;;
35993;SDS011;22066;54.274;18.578;2024-02-14T07:35:30;0.43;;;0.43;;
35993;SDS011;22066;54.274;18.578;2024-02-14T07:37:56;0.10;;;0.10;;
35993;SDS011;22066;54.274;18.578;2024-02-14T07:40:22;0.00;;;0.00;;
35993;SDS011;22066;54.274;18.578;2024-02-14T07:42:48;2.43;;;2.13;;
35993;SDS011;22066;54.274;18.578;2024-02-14T07:45:14;0.40;;;0.40;;
35993;SDS011;22066;54.274;18.578;2024-02-14T07:47:42;0.10;;;0.10;;
35993;SDS011;22066;54.274;18.578;2024-02-14T07:50:08;0.20;;;0.20;;
35993;SDS011;22066;54.274;18.578;2024-02-14T07:52:34;0.20;;;0.20;;
35993;SDS011;22066;54.274;18.578;2024-02-14T07:55:01;0.10;;;0.10;;
35993;SDS011;22066;54.274;18.578;2024-02-14T07:57:27;0.40;;;0.40;;
35993;SDS011;22066;54.274;18.578;2024-02-14T07:59:53;12.40;;;3.17;;
35993;SDS011;22066;54.274;18.578;2024-02-14T08:02:19;1.23;;;1.13;;
35993;SDS011;22066;54.274;18.578;2024-02-14T08:04:46;1.27;;;1.17;;
35993;SDS011;22066;54.274;18.578;2024-02-14T08:07:12;3.40;;;1.17;;
35993;SDS011;22066;54.274;18.578;2024-02-14T08:09:38;1.17;;;1.07;;
35993;SDS011;22066;54.274;18.578;2024-02-14T08:12:05;1.37;;;1.27;;
35993;SDS011;22066;54.274;18.578;2024-02-14T08:14:31;1.95;;;1.77;;
35993;SDS011;22066;54.274;18.578;2024-02-14T08:16:57;1.27;;;1.17;;
35993;SDS011;22066;54.274;18.578;2024-02-14T08:19:23;1.17;;;0.93;;
35993;SDS011;22066;54.274;18.578;2024-02-14T08:21:49;2.30;;;1.83;;
35993;SDS011;22066;54.274;18.578;2024-02-14T08:24:16;3.22;;;2.72;;
35993;SDS011;22066;54.274;18.578;2024-02-14T08:26:42;1.15;;;0.93;;
35993;SDS011;22066;54.274;18.578;2024-02-14T08:29:08;12.52;;;2.40;;
35993;SDS011;22066;54.274;18.578;2024-02-14T08:31:36;1.42;;;1.33;;
35993;SDS011;22066;54.274;18.578;2024-02-14T08:34:03;7.25;;;2.00;;
35993;SDS011;22066;54.274;18.578;2024-02-14T08:36:29;0.63;;;0.63;;
35993;SDS011;22066;54.274;18.578;2024-02-14T08:38:55;3.22;;;1.48;;
35993;SDS011;22066;54.274;18.578;2024-02-14T08:41:21;2.10;;;1.80;;
35993;SDS011;22066;54.274;18.578;2024-02-14T08:43:48;0.98;;;0.90;;
35993;SDS011;22066;54.274;18.578;2024-02-14T08:46:14;1.48;;;1.38;;
35993;SDS011;22066;54.274;18.578;2024-02-14T08:48:43;0.20;;;0.20;;
35993;SDS011;22066;54.274;18.578;2024-02-14T08:51:13;0.77;;;0.77;;
35993;SDS011;22066;54.274;18.578;2024-02-14T08:53:39;0.52;;;0.52;;
35993;SDS011;22066;54.274;18.578;2024-02-14T08:56:07;0.30;;;0.30;;
35993;SDS011;22066;54.274;18.578;2024-02-14T08:58:34;0.10;;;0.10;;
35993;SDS011;22066;54.274;18.578;2024-02-14T09:01:00;0.50;;;0.47;;
35993;SDS011;22066;54.274;18.578;2024-02-14T09:03:26;1.10;;;0.47;;
35993;SDS011;22066;54.274;18.578;2024-02-14T09:05:52;2.75;;;1.70;;
35993;SDS011;22066;54.274;18.578;2024-02-14T09:08:19;0.32;;;0.32;;
35993;SDS011;22066;54.274;18.578;2024-02-14T09:10:45;0.88;;;0.70;;
35993;SDS011;22066;54.274;18.578;2024-02-14T09:13:12;2.30;;;0.65;;
35993;SDS011;22066;54.274;18.578;2024-02-14T09:15:38;0.32;;;0.30;;
35993;SDS011;22066;54.274;18.578;2024-02-14T09:18:04;0.52;;;0.52;;
35993;SDS011;22066;54.274;18.578;2024-02-14T09:20:30;1.23;;;1.13;;
35993;SDS011;22066;54.274;18.578;2024-02-14T09:22:57;0.28;;;0.28;;
35993;SDS011;22066;54.274;18.578;2024-02-14T09:25:23;0.30;;;0.30;;
35993;SDS011;22066;54.274;18.578;2024-02-14T09:27:50;0.63;;;0.63;;
35993;SDS011;22066;54.274;18.578;2024-02-14T09:30:16;0.20;;;0.20;;
35993;SDS011;22066;54.274;18.578;2024-02-14T09:32:43;0.30;;;0.30;;
35993;SDS011;22066;54.274;18.578;2024-02-14T09:35:09;0.15;;;0.15;;
35993;SDS011;22066;54.274;18.578;2024-02-14T09:37:35;1.40;;;1.30;;
35993;SDS011;22066;54.274;18.578;2024-02-14T09:40:07;5.20;;;3.88;;
35993;SDS011;22066;54.274;18.578;2024-02-14T09:42:38;1.17;;;1.08;;
35993;SDS011;22066;54.274;18.578;2024-02-14T09:45:05;1.70;;;0.75;;
35993;SDS011;22066;54.274;18.578;2024-02-14T09:47:32;0.30;;;0.30;;
35993;SDS011;22066;54.274;18.578;2024-02-14T09:49:59;0.88;;;0.80;;
35993;SDS011;22066;54.274;18.578;2024-02-14T09:52:25;3.30;;;1.08;;
35993;SDS011;22066;54.274;18.578;2024-02-14T09:54:51;1.17;;;1.08;;
35993;SDS011;22066;54.274;18.578;2024-02-14T09:57:17;0.57;;;0.57;;
35993;SDS011;22066;54.274;18.578;2024-02-14T09:59:44;3.13;;;1.85;;
35993;SDS011;22066;54.274;18.578;2024-02-14T10:02:10;0.47;;;0.47;;
35993;SDS011;22066;54.274;18.578;2024-02-14T10:04:37;0.65;;;0.65;;
35993;SDS011;22066;54.274;18.578;2024-02-14T10:07:04;0.40;;;0.40;;
35993;SDS011;22066;54.274;18.578;2024-02-14T10:09:30;3.83;;;2.05;;
35993;SDS011;22066;54.274;18.578;2024-02-14T10:11:56;0.88;;;0.88;;
35993;SDS011;22066;54.274;18.578;2024-02-14T10:14:23;0.10;;;0.10;;
35993;SDS011;22066;54.274;18.578;2024-02-14T10:16:49;1.27;;;0.77;;
35993;SDS011;22066;54.274;18.578;2024-02-14T10:19:16;0.20;;;0.20;;
35993;SDS011;22066;54.274;18.578;2024-02-14T10:21:42;1.05;;;0.95;;
35993;SDS011;22066;54.274;18.578;2024-02-14T10:24:08;0.20;;;0.20;;
35993;SDS011;22066;54.274;18.578;2024-02-14T10:26:37;0.75;;;0.75;;
35993;SDS011;22066;54.274;18.578;2024-02-14T10:29:05;30.45;;;1.95;;
35993;SDS011;22066;54.274;18.578;2024-02-14T10:31:31;0.60;;;0.60;;
35993;SDS011;22066;54.274;18.578;2024-02-14T10:33:58;2.22;;;1.73;;
35993;SDS011;22066;54.274;18.578;2024-02-14T10:36:24;0.57;;;0.55;;
35993;SDS011;22066;54.274;18.578;2024-02-14T10:38:50;1.25;;;1.10;;
35993;SDS011;22066;54.274;18.578;2024-02-14T10:41:17;0.32;;;0.32;;
35993;SDS011;22066;54.274;18.578;2024-02-14T10:43:43;7.68;;;2.28;;
35993;SDS011;22066;54.274;18.578;2024-02-14T10:46:22;4.03;;;2.05;;
35993;SDS011;22066;54.274;18.578;2024-02-14T10:48:52;7.53;;;1.38;;
35993;SDS011;22066;54.274;18.578;2024-02-14T10:51:19;1.02;;;0.75;;
35993;SDS011;22066;54.274;18.578;2024-02-14T10:53:47;1.33;;;0.98;;
35993;SDS011;22066;54.274;18.578;2024-02-14T10:56:18;0.32;;;0.32;;
35993;SDS011;22066;54.274;18.578;2024-02-14T10:58:47;0.60;;;0.50;;
35993;SDS011;22066;54.274;18.578;2024-02-14T11:01:14;1.60;;;1.50;;
35993;SDS011;22066;54.274;18.578;2024-02-14T11:03:41;1.80;;;0.85;;
35993;SDS011;22066;54.274;18.578;2024-02-14T11:06:08;0.22;;;0.22;;
35993;SDS011;22066;54.274;18.578;2024-02-14T11:08:35;0.32;;;0.30;;
35993;SDS011;22066;54.274;18.578;2024-02-14T11:11:02;1.55;;;0.63;;
35993;SDS011;22066;54.274;18.578;2024-02-14T11:13:28;0.20;;;0.20;;
35993;SDS011;22066;54.274;18.578;2024-02-14T11:16:01;0.82;;;0.80;;
35993;SDS011;22066;54.274;18.578;2024-02-14T11:18:27;0.10;;;0.10;;
35993;SDS011;22066;54.274;18.578;2024-02-14T11:20:58;0.28;;;0.28;;
35993;SDS011;22066;54.274;18.578;2024-02-14T11:23:24;0.75;;;0.75;;
35993;SDS011;22066;54.274;18.578;2024-02-14T11:25:58;0.30;;;0.30;;
35993;SDS011;22066;54.274;18.578;2024-02-14T11:28:25;0.50;;;0.50;;
35993;SDS011;22066;54.274;18.578;2024-02-14T11:30:51;1.25;;;1.15;;
35993;SDS011;22066;54.274;18.578;2024-02-14T11:33:18;0.80;;;0.57;;
35993;SDS011;22066;54.274;18.578;2024-02-14T11:35:48;0.60;;;0.60;;
35993;SDS011;22066;54.274;18.578;2024-02-14T11:38:16;1.02;;;0.93;;
35993;SDS011;22066;54.274;18.578;2024-02-14T11:40:42;0.38;;;0.38;;
35993;SDS011;22066;54.274;18.578;2024-02-14T11:45:39;1.00;;;0.98;;
35993;SDS011;22066;54.274;18.578;2024-02-14T11:48:07;0.35;;;0.35;;
35993;SDS011;22066;54.274;18.578;2024-02-14T11:50:34;0.50;;;0.50;;
35993;SDS011;22066;54.274;18.578;2024-02-14T11:53:00;0.10;;;0.10;;
35993;SDS011;22066;54.274;18.578;2024-02-14T11:55:29;0.47;;;0.47;;
35993;SDS011;22066;54.274;18.578;2024-02-14T11:57:57;0.30;;;0.30;;
35993;SDS011;22066;54.274;18.578;2024-02-14T12:00:23;0.55;;;0.55;;
35993;SDS011;22066;54.274;18.578;2024-02-14T12:02:49;2.05;;;1.85;;
35993;SDS011;22066;54.274;18.578;2024-02-14T12:05:16;0.20;;;0.20;;
35993;SDS011;22066;54.274;18.578;2024-02-14T12:07:42;0.88;;;0.60;;
35993;SDS011;22066;54.274;18.578;2024-02-14T12:10:09;0.65;;;0.65;;
35993;SDS011;22066;54.274;18.578;2024-02-14T12:12:37;0.22;;;0.22;;
35993;SDS011;22066;54.274;18.578;2024-02-14T12:15:03;0.20;;;0.20;;
35993;SDS011;22066;54.274;18.578;2024-02-14T12:17:31;1.85;;;1.48;;
35993;SDS011;22066;54.274;18.578;2024-02-14T12:20:09;0.20;;;0.20;;
35993;SDS011;22066;54.274;18.578;2024-02-14T12:22:36;0.60;;;0.60;;
35993;SDS011;22066;54.274;18.578;2024-02-14T12:25:02;2.28;;;0.73;;
35993;SDS011;22066;54.274;18.578;2024-02-14T12:27:33;0.55;;;0.55;;
35993;SDS011;22066;54.274;18.578;2024-02-14T12:30:02;0.70;;;0.70;;
35993;SDS011;22066;54.274;18.578;2024-02-14T12:32:29;0.95;;;0.50;;
35993;SDS011;22066;54.274;18.578;2024-02-14T12:34:55;0.80;;;0.75;;
35993;SDS011;22066;54.274;18.578;2024-02-14T12:37:22;0.80;;;0.80;;
35993;SDS011;22066;54.274;18.578;2024-02-14T12:39:48;0.10;;;0.10;;
35993;SDS011;22066;54.274;18.578;2024-02-14T12:42:15;1.40;;;1.30;;
35993;SDS011;22066;54.274;18.578;2024-02-14T12:44:43;1.50;;;0.85;;
35993;SDS011;22066;54.274;18.578;2024-02-14T12:47:09;0.57;;;0.57;;
35993;SDS011;22066;54.274;18.578;2024-02-14T12:49:35;0.20;;;0.20;;
35993;SDS011;22066;54.274;18.578;2024-02-14T12:52:01;0.85;;;0.85;;
35993;SDS011;22066;54.274;18.578;2024-02-14T12:54:29;0.25;;;0.25;;
35993;SDS011;22066;54.274;18.578;2024-02-14T12:56:56;1.13;;;1.00;;
35993;SDS011;22066;54.274;18.578;2024-02-14T12:59:22;0.55;;;0.55;;
35993;SDS011;22066;54.274;18.578;2024-02-14T13:01:48;0.22;;;0.22;;
35993;SDS011;22066;54.274;18.578;2024-02-14T13:04:14;0.88;;;0.70;;
35993;SDS011;22066;54.274;18.578;2024-02-14T13:06:41;0.10;;;0.10;;
35993;SDS011;22066;54.274;18.578;2024-02-14T13:09:07;0.20;;;0.20;;
35993;SDS011;22066;54.274;18.578;2024-02-14T13:11:33;1.27;;;1.20;;
35993;SDS011;22066;54.274;18.578;2024-02-14T13:14:00;0.50;;;0.50;;
35993;SDS011;22066;54.274;18.578;2024-02-14T13:16:26;0.80;;;0.80;;
35993;SDS011;22066;54.274;18.578;2024-02-14T13:18:52;0.57;;;0.57;;
35993;SDS011;22066;54.274;18.578;2024-02-14T13:21:18;0.63;;;0.63;;
35993;SDS011;22066;54.274;18.578;2024-02-14T13:23:44;7.57;;;1.38;;
35993;SDS011;22066;54.274;18.578;2024-02-14T13:26:10;0.22;;;0.22;;
35993;SDS011;22066;54.274;18.578;2024-02-14T13:28:37;1.02;;;0.95;;
35993;SDS011;22066;54.274;18.578;2024-02-14T13:31:03;0.57;;;0.55;;
35993;SDS011;22066;54.274;18.578;2024-02-14T13:33:29;1.33;;;0.65;;
35993;SDS011;22066;54.274;18.578;2024-02-14T13:35:55;5.47;;;2.15;;
35993;SDS011;22066;54.274;18.578;2024-02-14T13:38:21;1.08;;;1.02;;
35993;SDS011;22066;54.274;18.578;2024-02-14T13:40:47;1.38;;;0.50;;
35993;SDS011;22066;54.274;18.578;2024-02-14T13:43:13;3.50;;;2.60;;
35993;SDS011;22066;54.274;18.578;2024-02-14T13:45:42;1.10;;;1.00;;
35993;SDS011;22066;54.274;18.578;2024-02-14T13:48:09;2.42;;;1.77;;
35993;SDS011;22066;54.274;18.578;2024-02-14T13:50:35;7.18;;;6.32;;
35993;SDS011;22066;54.274;18.578;2024-02-14T13:53:01;12.30;;;11.25;;
35993;SDS011;22066;54.274;18.578;2024-02-14T13:55:28;9.48;;;8.43;;
35993;SDS011;22066;54.274;18.578;2024-02-14T13:57:54;12.88;;;4.93;;
35993;SDS011;22066;54.274;18.578;2024-02-14T14:00:20;6.35;;;5.25;;
35993;SDS011;22066;54.274;18.578;2024-02-14T14:02:46;18.13;;;12.18;;
35993;SDS011;22066;54.274;18.578;2024-02-14T14:05:12;18.90;;;5.85;;
35993;SDS011;22066;54.274;18.578;2024-02-14T14:07:39;12.45;;;7.03;;
35993;SDS011;22066;54.274;18.578;2024-02-14T14:10:06;10.23;;;5.60;;
35993;SDS011;22066;54.274;18.578;2024-02-14T14:12:32;8.15;;;5.70;;
35993;SDS011;22066;54.274;18.578;2024-02-14T14:14:58;5.15;;;4.68;;
35993;SDS011;22066;54.274;18.578;2024-02-14T14:17:24;6.45;;;4.00;;
35993;SDS011;22066;54.274;18.578;2024-02-14T14:19:51;7.32;;;5.65;;
35993;SDS011;22066;54.274;18.578;2024-02-14T14:22:17;4.45;;;2.65;;
35993;SDS011;22066;54.274;18.578;2024-02-14T14:24:43;5.78;;;3.38;;
35993;SDS011;22066;54.274;18.578;2024-02-14T14:27:09;7.22;;;3.72;;
35993;SDS011;22066;54.274;18.578;2024-02-14T14:29:39;1.67;;;1.33;;
35993;SDS011;22066;54.274;18.578;2024-02-14T14:32:06;3.47;;;3.05;;
35993;SDS011;22066;54.274;18.578;2024-02-14T14:34:33;2.47;;;2.20;;
35993;SDS011;22066;54.274;18.578;2024-02-14T14:36:59;9.02;;;6.55;;
35993;SDS011;22066;54.274;18.578;2024-02-14T14:39:26;2.53;;;1.55;;